createdAt,value
2024-05-09T00:01:11.115Z,101334.33
2024-05-09T00:02:11.079Z,101334.80
2024-05-09T00:03:12.549Z,101332.27
2024-05-09T00:04:11.107Z,101336.55
2024-05-09T00:05:12.147Z,101338.56
2024-05-09T00:06:11.126Z,101335.02
2024-05-09T00:07:11.069Z,101338.69
2024-05-09T00:08:11.399Z,101336.19
2024-05-09T00:09:11.066Z,101337.35
2024-05-09T00:10:17.865Z,101331.73
2024-05-09T00:11:13.567Z,101335.17
2024-05-09T00:12:11.174Z,101333.77
2024-05-09T00:13:11.485Z,101330.38
2024-05-09T00:14:11.126Z,101335.18
2024-05-09T00:15:11.069Z,101332.56
2024-05-09T00:16:11.066Z,101331.90
2024-05-09T00:17:11.143Z,101326.91
2024-05-09T00:18:11.322Z,101330.12
2024-05-09T00:19:11.418Z,101327.37
2024-05-09T00:20:17.706Z,101328.30
2024-05-09T00:21:13.372Z,101329.19
2024-05-09T00:22:11.067Z,101334.02
2024-05-09T00:23:13.001Z,101334.16
2024-05-09T00:24:11.069Z,101334.68
2024-05-09T00:25:11.097Z,101340.19
2024-05-09T00:26:11.131Z,101341.53
2024-05-09T00:27:13.256Z,101344.62
2024-05-09T00:28:11.086Z,101343.80
2024-05-09T00:29:11.149Z,101341.95
2024-05-09T00:30:17.468Z,101343.95
2024-05-09T00:31:13.200Z,101338.66
2024-05-09T00:32:11.260Z,101340.20
2024-05-09T00:33:11.891Z,101340.48
2024-05-09T00:34:11.252Z,101337.50
2024-05-09T00:35:11.115Z,101340.16
2024-05-09T00:36:11.078Z,101338.57
2024-05-09T00:37:11.073Z,101338.30
2024-05-09T00:38:11.116Z,101341.50
2024-05-09T00:39:11.079Z,101338.81
2024-05-09T00:40:15.331Z,101340.73
2024-05-09T00:41:14.589Z,101339.41
2024-05-09T00:42:11.081Z,101341.74
2024-05-09T00:43:11.731Z,101336.49
2024-05-09T00:44:11.110Z,101336.95
2024-05-09T00:45:11.086Z,101337.66
2024-05-09T00:46:11.090Z,101334.91
2024-05-09T00:47:11.228Z,101333.97
2024-05-09T00:48:13.291Z,101337.46
2024-05-09T00:49:11.214Z,101337.51
2024-05-09T00:50:15.983Z,101338.28
2024-05-09T00:51:13.313Z,101334.14
2024-05-09T00:52:11.080Z,101334.04
2024-05-09T00:53:12.221Z,101328.97
2024-05-09T00:54:11.125Z,101323.89
2024-05-09T00:55:11.114Z,101327.20
2024-05-09T00:56:11.149Z,101328.09
2024-05-09T00:57:11.093Z,101326.99
2024-05-09T00:58:12.150Z,101327.76
2024-05-09T00:59:11.127Z,101332.61
2024-05-09T01:00:22.096Z,101333.05
2024-05-09T01:01:13.210Z,101326.22
2024-05-09T01:02:11.204Z,101327.20
2024-05-09T01:03:13.239Z,101331.85
2024-05-09T01:04:11.523Z,101330.57
2024-05-09T01:05:11.347Z,101329.96
2024-05-09T01:06:11.084Z,101332.40
2024-05-09T01:07:11.133Z,101331.45
2024-05-09T01:08:11.268Z,101333.16
2024-05-09T01:09:11.135Z,101332.22
2024-05-09T01:10:17.053Z,101333.50
2024-05-09T01:11:13.138Z,101331.46
2024-05-09T01:12:11.422Z,101336.47
2024-05-09T01:13:11.191Z,101333.32
2024-05-09T01:14:11.220Z,101333.60
2024-05-09T01:15:11.090Z,101334.39
2024-05-09T01:16:11.190Z,101334.39
2024-05-09T01:17:11.215Z,101334.01
2024-05-09T01:18:13.562Z,101334.98
2024-05-09T01:19:19.291Z,101335.66
2024-05-09T01:20:19.707Z,101336.54
2024-05-09T01:21:15.271Z,101335.88
2024-05-09T01:22:11.169Z,101336.15
2024-05-09T01:23:11.598Z,101333.94
2024-05-09T01:24:11.149Z,101335.31
2024-05-09T01:25:11.148Z,101328.60
2024-05-09T01:26:11.202Z,101327.06
2024-05-09T01:27:11.154Z,101326.78
2024-05-09T01:28:11.195Z,101322.09
2024-05-09T01:29:11.224Z,101324.80
2024-05-09T01:30:17.193Z,101321.91
2024-05-09T01:31:13.156Z,101320.27
2024-05-09T01:32:11.319Z,101319.38
2024-05-09T01:33:12.439Z,101319.27
2024-05-09T01:34:11.298Z,101319.15
2024-05-09T01:35:11.185Z,101321.13
2024-05-09T01:36:11.207Z,101318.28
2024-05-09T01:37:11.128Z,101323.04
2024-05-09T01:38:11.227Z,101322.83
2024-05-09T01:39:11.161Z,101322.12
2024-05-09T01:40:15.049Z,101320.68
2024-05-09T01:41:13.312Z,101318.68
2024-05-09T01:42:11.211Z,101315.71
2024-05-09T01:43:12.114Z,101315.90
2024-05-09T01:44:11.181Z,101314.15
2024-05-09T01:45:11.173Z,101315.62
2024-05-09T01:46:15.091Z,101314.46
2024-05-09T01:47:11.325Z,101317.09
2024-05-09T01:48:11.715Z,101316.81
2024-05-09T01:49:11.286Z,101310.20
2024-05-09T01:50:11.506Z,101315.04
2024-05-09T01:51:11.486Z,101311.74
2024-05-09T01:52:11.204Z,101309.92
2024-05-09T01:53:11.358Z,101311.36
2024-05-09T01:54:11.190Z,101311.03
2024-05-09T01:55:11.170Z,101309.43
2024-05-09T01:56:11.359Z,101311.41
2024-05-09T01:57:11.199Z,101312.77
2024-05-09T01:58:11.208Z,101313.61
2024-05-09T01:59:11.160Z,101309.87
2024-05-09T02:00:15.573Z,101315.82
2024-05-09T02:01:11.291Z,101313.33
2024-05-09T02:02:11.369Z,101312.78
2024-05-09T02:03:15.805Z,101313.29
2024-05-09T02:04:11.344Z,101310.76
2024-05-09T02:05:11.200Z,101310.25
2024-05-09T02:06:11.563Z,101306.29
2024-05-09T02:07:11.201Z,101307.08
2024-05-09T02:08:13.163Z,101307.07
2024-05-09T02:09:11.091Z,101305.14
2024-05-09T02:10:16.645Z,101300.08
2024-05-09T02:11:14.574Z,101299.91
2024-05-09T02:12:11.337Z,101304.52
2024-05-09T02:13:11.273Z,101304.44
2024-05-09T02:14:11.178Z,101311.63
2024-05-09T02:15:11.093Z,101313.68
2024-05-09T02:16:13.093Z,101312.90
2024-05-09T02:17:11.245Z,101313.67
2024-05-09T02:18:11.480Z,101314.34
2024-05-09T02:19:11.377Z,101314.00
2024-05-09T02:21:11.174Z,101318.56
2024-05-09T02:22:11.218Z,101319.57
2024-05-09T02:23:11.312Z,101317.19
2024-05-09T02:24:11.157Z,101315.93
2024-05-09T02:25:11.198Z,101316.04
2024-05-09T02:26:11.278Z,101314.83
2024-05-09T02:27:11.092Z,101315.60
2024-05-09T02:28:11.096Z,101314.39
2024-05-09T02:29:11.132Z,101313.84
2024-05-09T02:30:18.631Z,101313.64
2024-05-09T02:31:15.277Z,101309.12
2024-05-09T02:32:11.198Z,101305.54
2024-05-09T02:33:14.008Z,101305.00
2024-05-09T02:34:11.187Z,101302.61
2024-05-09T02:35:11.177Z,101303.10
2024-05-09T02:36:11.091Z,101304.32
2024-05-09T02:37:11.093Z,101303.39
2024-05-09T02:38:11.293Z,101302.94
2024-05-09T02:39:11.107Z,101302.85
2024-05-09T02:40:14.751Z,101303.66
2024-05-09T02:41:13.363Z,101304.14
2024-05-09T02:42:11.090Z,101303.35
2024-05-09T02:43:11.801Z,101302.28
2024-05-09T02:44:11.143Z,101302.99
2024-05-09T02:45:11.094Z,101303.83
2024-05-09T02:46:11.103Z,101309.60
2024-05-09T02:47:11.157Z,101311.88
2024-05-09T02:48:14.034Z,101314.70
2024-05-09T02:49:11.308Z,101315.14
2024-05-09T02:50:16.116Z,101316.80
2024-05-09T02:51:13.223Z,101315.70
2024-05-09T02:52:11.091Z,101315.04
2024-05-09T02:53:11.195Z,101312.50
2024-05-09T02:54:11.093Z,101313.05
2024-05-09T02:55:11.094Z,101314.58
2024-05-09T02:56:11.126Z,101310.54
2024-05-09T02:57:11.080Z,101309.60
2024-05-09T02:58:11.128Z,101312.09
2024-05-09T02:59:11.085Z,101312.37
2024-05-09T03:00:18.490Z,101310.77
2024-05-09T03:01:13.102Z,101312.73
2024-05-09T03:02:11.188Z,101311.96
2024-05-09T03:03:13.364Z,101313.26
2024-05-09T03:04:11.160Z,101315.76
2024-05-09T03:05:11.078Z,101315.74
2024-05-09T03:06:11.067Z,101316.82
2024-05-09T03:07:11.090Z,101318.47
2024-05-09T03:08:11.225Z,101317.74
2024-05-09T03:09:12.065Z,101318.80
2024-05-09T03:10:18.349Z,101320.26
2024-05-09T03:11:13.216Z,101319.19
2024-05-09T03:12:11.152Z,101321.45
2024-05-09T03:13:11.065Z,101321.79
2024-05-09T03:14:11.120Z,101322.31
2024-05-09T03:15:11.070Z,101318.25
2024-05-09T03:16:11.062Z,101318.30
2024-05-09T03:17:11.139Z,101315.59
2024-05-09T03:18:11.608Z,101314.35
2024-05-09T03:19:11.158Z,101313.71
2024-05-09T03:20:20.002Z,101316.35
2024-05-09T03:21:13.076Z,101313.66
2024-05-09T03:22:11.068Z,101316.14
2024-05-09T03:23:11.099Z,101313.93
2024-05-09T03:24:11.087Z,101313.30
2024-05-09T03:25:11.067Z,101310.06
2024-05-09T03:26:13.118Z,101308.77
2024-05-09T03:27:11.075Z,101306.41
2024-05-09T03:28:11.075Z,101304.08
2024-05-09T03:29:11.105Z,101304.96
2024-05-09T03:30:15.511Z,101302.48
2024-05-09T03:31:13.042Z,101303.52
2024-05-09T03:32:11.130Z,101301.48
2024-05-09T03:33:14.146Z,101302.82
2024-05-09T03:34:11.209Z,101305.46
2024-05-09T03:35:11.156Z,101306.96
2024-05-09T03:36:11.526Z,101308.78
2024-05-09T03:37:11.084Z,101311.20
2024-05-09T03:38:11.257Z,101315.11
2024-05-09T03:39:12.116Z,101314.83
2024-05-09T03:40:14.708Z,101314.01
2024-05-09T03:41:13.068Z,101316.41
2024-05-09T03:42:11.076Z,101314.68
2024-05-09T03:43:11.079Z,101314.79
2024-05-09T03:44:11.131Z,101317.87
2024-05-09T03:45:11.076Z,101322.49
2024-05-09T03:46:11.079Z,101317.72
2024-05-09T03:47:11.115Z,101320.01
2024-05-09T03:48:11.404Z,101316.67
2024-05-09T03:49:11.147Z,101318.86
2024-05-09T03:50:18.306Z,101319.51
2024-05-09T03:51:13.608Z,101316.98
2024-05-09T03:52:11.075Z,101318.03
2024-05-09T03:53:13.218Z,101318.99
2024-05-09T03:54:11.074Z,101315.34
2024-05-09T03:55:11.077Z,101312.85
2024-05-09T03:56:11.121Z,101313.28
2024-05-09T03:57:11.080Z,101310.17
2024-05-09T03:58:11.076Z,101308.74
2024-05-09T03:59:11.106Z,101309.35
2024-05-09T04:00:17.678Z,101310.17
2024-05-09T04:01:13.334Z,101305.31
2024-05-09T04:02:11.178Z,101307.78
2024-05-09T04:03:12.747Z,101311.28
2024-05-09T04:04:11.117Z,101304.09
2024-05-09T04:05:11.155Z,101306.72
2024-05-09T04:06:11.076Z,101307.11
2024-05-09T04:07:11.076Z,101308.21
2024-05-09T04:08:11.568Z,101304.97
2024-05-09T04:09:11.076Z,101303.35
2024-05-09T04:10:17.135Z,101305.57
2024-05-09T04:11:13.561Z,101303.08
2024-05-09T04:12:11.152Z,101302.53
2024-05-09T04:13:11.166Z,101303.51
2024-05-09T04:14:11.114Z,101300.32
2024-05-09T04:15:13.247Z,101299.72
2024-05-09T04:16:11.079Z,101299.45
2024-05-09T04:17:11.122Z,101299.28
2024-05-09T04:18:11.240Z,101296.09
2024-05-09T04:19:11.144Z,101294.96
2024-05-09T04:20:21.065Z,101294.21
2024-05-09T04:21:13.322Z,101299.78
2024-05-09T04:22:11.083Z,101295.98
2024-05-09T04:23:13.792Z,101297.16
2024-05-09T04:24:11.100Z,101297.39
2024-05-09T04:25:11.076Z,101296.89
2024-05-09T04:26:11.122Z,101299.23
2024-05-09T04:27:11.101Z,101298.73
2024-05-09T04:28:11.087Z,101301.37
2024-05-09T04:29:11.120Z,101300.25
2024-05-09T04:30:18.448Z,101301.13
2024-05-09T04:31:13.312Z,101298.39
2024-05-09T04:32:11.202Z,101302.34
2024-05-09T04:33:13.155Z,101300.82
2024-05-09T04:34:11.187Z,101298.23
2024-05-09T04:35:11.185Z,101302.85
2024-05-09T04:36:11.084Z,101302.30
2024-05-09T04:37:11.075Z,101299.76
2024-05-09T04:38:11.183Z,101302.15
2024-05-09T04:39:11.083Z,101298.89
2024-05-09T04:40:17.214Z,101298.49
2024-05-09T04:41:13.346Z,101298.61
2024-05-09T04:42:11.079Z,101302.03
2024-05-09T04:43:15.077Z,101299.51
2024-05-09T04:44:11.128Z,101301.45
2024-05-09T04:45:11.094Z,101297.75
2024-05-09T04:46:11.093Z,101298.53
2024-05-09T04:47:11.186Z,101298.25
2024-05-09T04:48:11.389Z,101302.25
2024-05-09T04:49:11.272Z,101297.75
2024-05-09T04:50:14.567Z,101302.36
2024-05-09T04:51:13.357Z,101301.16
2024-05-09T04:52:11.078Z,101304.39
2024-05-09T04:53:14.103Z,101307.14
2024-05-09T04:54:22.107Z,101309.09
2024-05-09T04:55:13.196Z,101309.37
2024-05-09T04:56:11.106Z,101310.70
2024-05-09T04:57:11.092Z,101311.64
2024-05-09T04:58:11.084Z,101305.83
2024-05-09T04:59:11.172Z,101314.19
2024-05-09T05:00:14.788Z,101313.24
2024-05-09T05:01:13.336Z,101311.00
2024-05-09T05:02:11.196Z,101309.05
2024-05-09T05:03:13.615Z,101306.43
2024-05-09T05:04:11.131Z,101302.08
2024-05-09T05:05:12.006Z,101302.35
2024-05-09T05:06:11.135Z,101299.96
2024-05-09T05:07:11.085Z,101302.93
2024-05-09T05:08:17.156Z,101304.02
2024-05-09T05:09:11.085Z,101303.87
2024-05-09T05:10:15.050Z,101303.87
2024-05-09T05:11:13.508Z,101299.58
2024-05-09T05:12:15.259Z,101297.20
2024-05-09T05:13:15.122Z,101294.37
2024-05-09T05:14:11.190Z,101298.85
2024-05-09T05:15:11.088Z,101295.42
2024-05-09T05:16:11.105Z,101297.37
2024-05-09T05:17:11.098Z,101295.80
2024-05-09T05:18:11.243Z,101298.64
2024-05-09T05:19:14.287Z,101299.60
2024-05-09T05:20:17.847Z,101300.95
2024-05-09T05:21:13.300Z,101303.05
2024-05-09T05:22:11.091Z,101301.18
2024-05-09T05:23:12.173Z,101304.48
2024-05-09T05:24:11.085Z,101305.82
2024-05-09T05:25:11.090Z,101306.72
2024-05-09T05:26:11.139Z,101305.06
2024-05-09T05:27:11.127Z,101309.38
2024-05-09T05:28:11.140Z,101311.25
2024-05-09T05:29:11.145Z,101310.23
2024-05-09T05:30:17.621Z,101314.48
2024-05-09T05:31:13.473Z,101315.00
2024-05-09T05:32:11.261Z,101314.08
2024-05-09T05:33:13.509Z,101315.02
2024-05-09T05:34:11.112Z,101314.54
2024-05-09T05:35:11.138Z,101316.18
2024-05-09T05:36:11.085Z,101317.64
2024-05-09T05:37:11.091Z,101319.58
2024-05-09T05:38:11.386Z,101323.97
2024-05-09T05:39:11.096Z,101322.55
2024-05-09T05:41:11.129Z,101322.83
2024-05-09T05:42:11.090Z,101320.47
2024-05-09T05:43:15.094Z,101315.62
2024-05-09T05:44:11.110Z,101318.98
2024-05-09T05:45:11.091Z,101319.01
2024-05-09T05:46:11.095Z,101318.16
2024-05-09T05:47:11.155Z,101316.42
2024-05-09T05:48:11.357Z,101316.67
2024-05-09T05:49:11.274Z,101318.36
2024-05-09T05:50:20.763Z,101315.32
2024-05-09T05:51:13.495Z,101315.66
2024-05-09T05:52:12.100Z,101311.85
2024-05-09T05:53:11.192Z,101313.26
2024-05-09T05:54:11.092Z,101315.48
2024-05-09T05:55:11.099Z,101313.30
2024-05-09T05:56:11.196Z,101313.40
2024-05-09T05:57:11.070Z,101315.66
2024-05-09T05:58:11.106Z,101316.04
2024-05-09T05:59:12.591Z,101317.94
2024-05-09T06:00:17.984Z,101316.97
2024-05-09T06:01:13.414Z,101314.56
2024-05-09T06:02:11.125Z,101317.70
2024-05-09T06:03:11.477Z,101316.21
2024-05-09T06:04:11.134Z,101314.54
2024-05-09T06:05:11.145Z,101316.59
2024-05-09T06:06:11.116Z,101316.26
2024-05-09T06:07:11.064Z,101314.13
2024-05-09T06:08:11.102Z,101311.77
2024-05-09T06:09:11.068Z,101307.88
2024-05-09T06:10:17.369Z,101313.59
2024-05-09T06:11:13.385Z,101317.95
2024-05-09T06:12:11.220Z,101317.91
2024-05-09T06:13:11.856Z,101319.54
2024-05-09T06:14:11.143Z,101320.23
2024-05-09T06:15:11.075Z,101319.42
2024-05-09T06:16:11.067Z,101320.08
2024-05-09T06:17:11.156Z,101317.57
2024-05-09T06:18:12.331Z,101316.90
2024-05-09T06:19:11.186Z,101319.65
2024-05-09T06:20:16.766Z,101319.32
2024-05-09T06:21:13.470Z,101320.12
2024-05-09T06:22:11.070Z,101319.77
2024-05-09T06:23:11.209Z,101318.38
2024-05-09T06:24:11.069Z,101320.27
2024-05-09T06:25:11.071Z,101322.10
2024-05-09T06:26:11.114Z,101319.42
2024-05-09T06:27:11.069Z,101319.80
2024-05-09T06:28:11.069Z,101320.44
2024-05-09T06:29:11.083Z,101320.07
2024-05-09T06:30:21.155Z,101316.45
2024-05-09T06:31:13.176Z,101316.47
2024-05-09T06:32:11.141Z,101318.02
2024-05-09T06:33:13.080Z,101315.43
2024-05-09T06:34:11.176Z,101316.71
2024-05-09T06:35:11.085Z,101314.86
2024-05-09T06:36:11.078Z,101315.02
2024-05-09T06:37:11.072Z,101314.86
2024-05-09T06:38:11.772Z,101317.97
2024-05-09T06:39:11.074Z,101318.41
2024-05-09T06:40:12.559Z,101315.99
2024-05-09T06:41:11.122Z,101315.45
2024-05-09T06:42:11.102Z,101314.40
2024-05-09T06:43:17.342Z,101316.17
2024-05-09T06:44:11.107Z,101311.60
2024-05-09T06:45:11.072Z,101307.48
2024-05-09T06:46:11.076Z,101311.72
2024-05-09T06:47:11.164Z,101311.30
2024-05-09T06:48:11.399Z,101313.78
2024-05-09T06:49:12.437Z,101313.78
2024-05-09T06:50:16.543Z,101315.15
2024-05-09T06:51:13.616Z,101312.36
2024-05-09T06:52:11.082Z,101310.23
2024-05-09T06:53:11.110Z,101312.27
2024-05-09T06:54:11.074Z,101311.22
2024-05-09T06:55:11.092Z,101312.11
2024-05-09T06:56:11.157Z,101312.45
2024-05-09T06:57:11.082Z,101313.32
2024-05-09T06:58:11.077Z,101314.31
2024-05-09T06:59:11.106Z,101312.10
2024-05-09T07:00:15.455Z,101314.91
2024-05-09T07:01:13.181Z,101313.30
2024-05-09T07:02:11.135Z,101317.60
2024-05-09T07:03:17.380Z,101317.28
2024-05-09T07:04:11.317Z,101316.44
2024-05-09T07:05:11.179Z,101315.22
2024-05-09T07:06:11.187Z,101314.57
2024-05-09T07:07:12.081Z,101312.56
2024-05-09T07:08:11.124Z,101313.18
2024-05-09T07:09:11.087Z,101309.41
2024-05-09T07:10:17.944Z,101309.53
2024-05-09T07:11:13.116Z,101307.92
2024-05-09T07:12:11.227Z,101308.24
2024-05-09T07:13:13.378Z,101305.14
2024-05-09T07:14:11.141Z,101305.97
2024-05-09T07:15:11.083Z,101303.64
2024-05-09T07:16:11.075Z,101301.71
2024-05-09T07:17:11.198Z,101298.85
2024-05-09T07:18:13.806Z,101300.55
2024-05-09T07:19:11.429Z,101297.79
2024-05-09T07:20:16.556Z,101296.88
2024-05-09T07:21:13.377Z,101296.84
2024-05-09T07:22:11.086Z,101296.38
2024-05-09T07:23:13.272Z,101296.54
2024-05-09T07:24:11.079Z,101293.89
2024-05-09T07:25:11.082Z,101297.07
2024-05-09T07:26:11.136Z,101291.25
2024-05-09T07:27:11.079Z,101293.35
2024-05-09T07:28:17.122Z,101294.11
2024-05-09T07:29:11.120Z,101291.68
2024-05-09T07:30:13.544Z,101294.50
2024-05-09T07:31:13.189Z,101295.98
2024-05-09T07:32:11.159Z,101293.36
2024-05-09T07:33:14.238Z,101292.94
2024-05-09T07:34:11.147Z,101296.07
2024-05-09T07:35:11.166Z,101297.16
2024-05-09T07:36:11.085Z,101295.00
2024-05-09T07:37:16.119Z,101297.49
2024-05-09T07:38:11.124Z,101294.77
2024-05-09T07:39:11.087Z,101294.59
2024-05-09T07:40:14.744Z,101297.97
2024-05-09T07:41:13.375Z,101294.16
2024-05-09T07:42:11.093Z,101298.73
2024-05-09T07:43:11.084Z,101293.37
2024-05-09T07:44:11.120Z,101297.14
2024-05-09T07:45:29.693Z,101294.88
2024-05-09T07:47:14.117Z,101294.29
2024-05-09T07:48:28.036Z,101298.12
2024-05-09T07:49:44.564Z,101300.03
2024-05-09T07:50:55.387Z,101299.82
2024-05-09T07:53:29.207Z,101299.95
2024-05-09T07:53:37.280Z,101299.15
2024-05-09T07:54:13.393Z,101302.06
2024-05-09T07:55:11.284Z,101298.64
2024-05-09T07:56:12.017Z,101301.62
2024-05-09T07:57:11.150Z,101300.25
2024-05-09T07:58:11.164Z,101300.12
2024-05-09T07:59:11.089Z,101299.97
2024-05-09T08:00:14.257Z,101298.41
2024-05-09T08:01:11.250Z,101298.07
2024-05-09T08:02:11.485Z,101297.44
2024-05-09T08:03:11.183Z,101298.07
2024-05-09T08:04:11.229Z,101296.38
2024-05-09T08:05:11.301Z,101290.69
2024-05-09T08:06:11.089Z,101287.04
2024-05-09T08:07:11.235Z,101284.14
2024-05-09T08:08:11.097Z,101283.33
2024-05-09T08:09:16.712Z,101286.65
2024-05-09T08:10:18.679Z,101288.11
2024-05-09T08:11:13.124Z,101287.64
2024-05-09T08:12:12.089Z,101287.82
2024-05-09T08:13:11.220Z,101282.61
2024-05-09T08:14:11.099Z,101288.05
2024-05-09T08:15:11.096Z,101289.63
2024-05-09T08:16:11.171Z,101289.80
2024-05-09T08:17:11.160Z,101288.22
2024-05-09T08:18:11.340Z,101292.07
2024-05-09T08:19:11.190Z,101289.78
2024-05-09T08:21:11.088Z,101292.75
2024-05-09T08:22:11.117Z,101294.34
2024-05-09T08:23:11.142Z,101297.02
2024-05-09T08:24:11.091Z,101297.82
2024-05-09T08:25:13.536Z,101295.79
2024-05-09T08:26:11.111Z,101296.30
2024-05-09T08:27:11.089Z,101300.48
2024-05-09T08:28:11.150Z,101300.00
2024-05-09T08:29:11.103Z,101298.99
2024-05-09T08:30:18.829Z,101302.87
2024-05-09T08:31:13.682Z,101302.98
2024-05-09T08:32:11.113Z,101301.12
2024-05-09T08:33:11.156Z,101299.76
2024-05-09T08:34:11.403Z,101299.27
2024-05-09T08:35:11.101Z,101297.83
2024-05-09T08:36:11.098Z,101299.96
2024-05-09T08:37:15.766Z,101298.13
2024-05-09T08:38:13.502Z,101300.16
2024-05-09T08:39:11.090Z,101298.51
2024-05-09T08:40:16.687Z,101294.75
2024-05-09T08:41:14.542Z,101297.79
2024-05-09T08:42:13.095Z,101293.71
2024-05-09T08:43:12.684Z,101293.82
2024-05-09T08:44:11.109Z,101295.97
2024-05-09T08:45:12.094Z,101295.69
2024-05-09T08:46:11.161Z,101295.48
2024-05-09T08:47:12.157Z,101296.75
2024-05-09T08:48:11.234Z,101299.07
2024-05-09T08:49:11.236Z,101298.68
2024-05-09T08:50:23.479Z,101295.68
2024-05-09T08:51:13.199Z,101295.42
2024-05-09T08:52:11.128Z,101294.91
2024-05-09T08:53:11.112Z,101292.22
2024-05-09T08:54:11.122Z,101291.36
2024-05-09T08:55:11.207Z,101293.97
2024-05-09T08:56:11.169Z,101294.12
2024-05-09T08:57:11.066Z,101295.07
2024-05-09T08:58:12.255Z,101294.97
2024-05-09T08:59:11.070Z,101294.71
2024-05-09T09:00:15.042Z,101292.04
2024-05-09T09:01:13.369Z,101291.15
2024-05-09T09:02:13.361Z,101296.90
2024-05-09T09:03:12.123Z,101292.09
2024-05-09T09:04:11.165Z,101293.53
2024-05-09T09:05:13.162Z,101291.16
2024-05-09T09:06:13.065Z,101289.77
2024-05-09T09:07:11.127Z,101289.15
2024-05-09T09:08:11.064Z,101291.49
2024-05-09T09:09:11.076Z,101289.67
2024-05-09T09:10:17.617Z,101292.16
2024-05-09T09:11:13.158Z,101288.24
2024-05-09T09:12:11.080Z,101289.60
2024-05-09T09:13:12.103Z,101287.12
2024-05-09T09:14:11.073Z,101287.56
2024-05-09T09:15:11.066Z,101287.61
2024-05-09T09:16:11.130Z,101286.34
2024-05-09T09:17:17.083Z,101287.71
2024-05-09T09:18:13.178Z,101284.47
2024-05-09T09:19:11.279Z,101288.06
2024-05-09T09:20:14.467Z,101284.77
2024-05-09T09:21:13.113Z,101283.97
2024-05-09T09:22:11.211Z,101281.32
2024-05-09T09:23:11.068Z,101279.99
2024-05-09T09:24:12.081Z,101280.62
2024-05-09T09:25:11.113Z,101277.46
2024-05-09T09:26:14.071Z,101274.54
2024-05-09T09:27:13.075Z,101277.79
2024-05-09T09:28:11.327Z,101277.08
2024-05-09T09:29:11.071Z,101278.37
2024-05-09T09:30:22.459Z,101275.32
2024-05-09T09:31:13.522Z,101282.84
2024-05-09T09:32:11.078Z,101273.99
2024-05-09T09:33:11.510Z,101274.92
2024-05-09T09:34:11.369Z,101278.22
2024-05-09T09:35:11.068Z,101274.28
2024-05-09T09:36:11.756Z,101278.26
2024-05-09T09:37:11.234Z,101279.32
2024-05-09T09:38:11.298Z,101277.60
2024-05-09T09:39:11.079Z,101281.35
2024-05-09T09:40:13.189Z,101276.24
2024-05-09T09:41:11.159Z,101278.12
2024-05-09T09:42:11.090Z,101277.18
2024-05-09T09:43:17.153Z,101274.06
2024-05-09T09:44:11.074Z,101275.11
2024-05-09T09:45:11.077Z,101273.89
2024-05-09T09:46:12.756Z,101276.25
2024-05-09T09:47:11.120Z,101271.39
2024-05-09T09:48:11.243Z,101268.25
2024-05-09T09:49:11.267Z,101271.35
2024-05-09T09:50:14.457Z,101263.57
2024-05-09T09:51:13.073Z,101270.13
2024-05-09T09:52:11.383Z,101270.45
2024-05-09T09:53:11.075Z,101273.38
2024-05-09T09:54:11.079Z,101276.75
2024-05-09T09:55:11.217Z,101275.76
2024-05-09T09:56:11.081Z,101274.87
2024-05-09T09:57:11.082Z,101273.68
2024-05-09T09:58:13.906Z,101274.68
2024-05-09T09:59:12.078Z,101278.63
2024-05-09T10:00:11.936Z,101272.66
2024-05-09T10:01:11.178Z,101271.72
2024-05-09T10:02:11.303Z,101274.72
2024-05-09T10:03:11.092Z,101271.08
2024-05-09T10:04:11.151Z,101270.39
2024-05-09T10:05:11.285Z,101265.61
2024-05-09T10:06:11.083Z,101269.30
2024-05-09T10:07:11.228Z,101270.91
2024-05-09T10:08:11.085Z,101271.36
2024-05-09T10:09:13.092Z,101269.29
2024-05-09T10:10:13.859Z,101274.69
2024-05-09T10:11:13.286Z,101273.75
2024-05-09T10:12:15.131Z,101274.11
2024-05-09T10:13:11.216Z,101274.60
2024-05-09T10:14:11.079Z,101273.06
2024-05-09T10:15:11.090Z,101273.78
2024-05-09T10:16:11.615Z,101267.21
2024-05-09T10:17:11.108Z,101268.80
2024-05-09T10:18:11.353Z,101268.11
2024-05-09T10:19:11.178Z,101268.13
2024-05-09T10:20:18.229Z,101267.84
2024-05-09T10:21:19.244Z,101268.70
2024-05-09T10:22:12.147Z,101267.71
2024-05-09T10:23:19.088Z,101270.12
2024-05-09T10:24:12.085Z,101268.57
2024-05-09T10:25:11.145Z,101270.36
2024-05-09T10:26:11.092Z,101271.52
2024-05-09T10:27:11.083Z,101274.46
2024-05-09T10:28:12.242Z,101277.00
2024-05-09T10:29:14.130Z,101270.36
2024-05-09T10:30:14.752Z,101272.56
2024-05-09T10:31:13.540Z,101271.00
2024-05-09T10:32:11.108Z,101267.10
2024-05-09T10:33:12.298Z,101270.85
2024-05-09T10:34:20.736Z,101272.01
2024-05-09T10:35:11.186Z,101270.72
2024-05-09T10:36:19.106Z,101266.54
2024-05-09T10:37:11.131Z,101267.21
2024-05-09T10:38:11.085Z,101270.95
2024-05-09T10:39:11.094Z,101273.52
2024-05-09T10:40:20.265Z,101268.91
2024-05-09T10:41:13.241Z,101264.89
2024-05-09T10:42:11.093Z,101268.43
2024-05-09T10:43:15.224Z,101272.94
2024-05-09T10:44:14.088Z,101269.91
2024-05-09T10:45:11.093Z,101270.99
2024-05-09T10:46:11.485Z,101270.59
2024-05-09T10:47:11.116Z,101269.85
2024-05-09T10:48:11.217Z,101269.09
2024-05-09T10:49:11.147Z,101269.84
2024-05-09T10:50:18.539Z,101268.69
2024-05-09T10:51:13.249Z,101266.16
2024-05-09T10:52:11.162Z,101266.00
2024-05-09T10:53:11.100Z,101265.38
2024-05-09T10:54:11.098Z,101265.41
2024-05-09T10:55:11.134Z,101264.39
2024-05-09T10:56:11.098Z,101258.84
2024-05-09T10:57:11.109Z,101261.81
2024-05-09T10:58:17.203Z,101264.99
2024-05-09T10:59:12.093Z,101260.86
2024-05-09T11:00:19.018Z,101263.42
2024-05-09T11:01:14.075Z,101259.20
2024-05-09T11:02:11.353Z,101260.80
2024-05-09T11:03:11.139Z,101263.86
2024-05-09T11:04:11.180Z,101264.36
2024-05-09T11:05:11.266Z,101260.05
2024-05-09T11:06:11.123Z,101262.29
2024-05-09T11:07:11.136Z,101259.71
2024-05-09T11:08:11.097Z,101261.98
2024-05-09T11:09:11.094Z,101260.31
2024-05-09T11:10:14.537Z,101260.34
2024-05-09T11:11:11.092Z,101257.88
2024-05-09T11:12:11.118Z,101258.59
2024-05-09T11:13:11.125Z,101262.27
2024-05-09T11:14:15.095Z,101258.46
2024-05-09T11:15:11.098Z,101258.39
2024-05-09T11:16:17.514Z,101256.18
2024-05-09T11:17:11.128Z,101253.03
2024-05-09T11:18:21.673Z,101253.30
2024-05-09T11:19:15.440Z,101258.38
2024-05-09T11:20:17.061Z,101258.11
2024-05-09T11:21:17.212Z,101252.60
2024-05-09T11:22:11.126Z,101253.27
2024-05-09T11:23:11.096Z,101251.39
2024-05-09T11:24:11.691Z,101253.05
2024-05-09T11:25:11.218Z,101249.85
2024-05-09T11:26:11.227Z,101248.70
2024-05-09T11:27:11.101Z,101247.01
2024-05-09T11:28:12.202Z,101249.47
2024-05-09T11:29:11.122Z,101247.52
2024-05-09T11:30:24.211Z,101242.83